La Puente, California
Current Conditions -  °F | °C
As of 8:53 AM on Thursday 23 Oct 2014 (Local Time) from KFUL Reporting Station
Clear Clear  
Wind Chill: 70°   Ceiling: Unl
Heat Index: 70°   Visibility: 7mi
Dew Point: 54°   Wind: 0mph
Humidity: 57%   Direction: NA
Pressure: 29.98"   Gusts: NA
Location:  34.02°N, 117.95°W
Report Text: KFUL 231553Z 00000KT 7SM CLR 21/12 A2998 RMK AO2 SLP152 T02110122
Loading
Personal Weather Stations






























Interactive Weather Map
Tropical Storm Tracking
New forecast layout! Learn more

10-Day Weather Forecast

Advertisements
Track Severe Weather on mobile